This is the latest recevied weather packets stored in our database for station/object KI5NXU. If no packets are shown the sender has not sent any weather packets the latest 10 day(s).
| Time | Temp. | Humidity | Pressure | Rain* | Wind** | Luminosity | Snow |
|---|---|---|---|---|---|---|---|
| 1778079739 | 11.67° C | 79% | 1014.2 hPa | 0 mm | - | 158 W/m² | - |
| 1778079436 | 11.67° C | 79% | 1014.8 hPa | 0 mm | - | 142 W/m² | - |
| 1778079133 | 11.67° C | 80% | 1015.1 hPa | 0 mm | - | 120 W/m² | - |
| 1778078830 | 11.67° C | 80% | 1015.4 hPa | 0 mm | - | 121 W/m² | - |
| 1778078527 | 11.11° C | 81% | 1015.6 hPa | 0 mm | - | 64 W/m² | - |
| 1778078224 | 11.11° C | 81% | 1015.9 hPa | 0 mm | - | 49 W/m² | - |
| 1778077922 | 11.11° C | 82% | 1015.8 hPa | 0 mm | - | 45 W/m² | - |
| 1778077621 | 11.11° C | 81% | 1016.1 hPa | 0 mm | - | 26 W/m² | - |
| 1778077318 | 11.11° C | 83% | 1015.8 hPa | 0 mm | - | 19 W/m² | - |
| 1778077015 | 11.11° C | 83% | 1015.1 hPa | 0 mm | - | 41 W/m² | - |
| 1778076714 | 11.11° C | 84% | 1014.8 hPa | 0 mm | - | 36 W/m² | - |
| 1778076411 | 11.11° C | 85% | 1014.6 hPa | 0 mm | - | 39 W/m² | - |
| 1778076108 | 11.11° C | 86% | 1014.6 hPa | 0 mm | - | 24 W/m² | - |
| 1778075805 | 11.11° C | 87% | 1014.3 hPa | 0 mm | - | 31 W/m² | - |
| 1778075501 | 11.11° C | 87% | 1014 hPa | 0 mm | - | 33 W/m² | - |
| 1778075198 | 11.11° C | 86% | 1013.8 hPa | 0 mm | - | 38 W/m² | - |
| 1778074893 | 10.56° C | 86% | 1013.8 hPa | 0 mm | - | 53 W/m² | - |
| 1778074591 | 11.11° C | 87% | 1014 hPa | 0 mm | - | 43 W/m² | - |
| 1778074288 | 10.56° C | 86% | 1014.3 hPa | 0 mm | - | 37 W/m² | - |
| 1778073985 | 10.56° C | 87% | 1014.3 hPa | 0 mm | - | 26 W/m² | - |
| 1778073682 | 10.56° C | 87% | 1014.7 hPa | 0 mm | - | 18 W/m² | - |
| 1778073380 | 10.56° C | 87% | 1014.8 hPa | 0 mm | - | 13 W/m² | - |
| 1778073075 | 10.56° C | 87% | 1014.7 hPa | 0 mm | - | 8 W/m² | - |
| 1778072773 | 10.56° C | 88% | 1014.1 hPa | 0 mm | - | 12 W/m² | - |
| 1778072470 | 10.56° C | 87% | 1013.8 hPa | 0 mm | - | 15 W/m² | - |
* Rain latest hour (hover to see other rain measurements)
** Current wind speed in m/s (hover to see current wind gust speed)